Time;durP1;ratioP1;P1;durP2;ratioP2;P2;SDS_P1;SDS_P2;PMS_P1;PMS_P2;Temp;Humidity;BMP_temperature;BMP_pressure;BME280_temperature;BME280_humidity;BME280_pressure;Samples;Min_cycle;Max_cycle;Signal;HPM_P1;HPM_P2
2023/02/09 00:02:21;;;;;;;;;;;;;;;-2.32;53.05;102075.72;5073676;28;19913;-41
2023/02/09 00:04:46;;;;;;;;;;;;;;;-2.24;54.54;102084.09;5073487;28;20359;-41
2023/02/09 00:07:11;;;;;;;;;;;;;;;-2.22;54.87;102084.88;5073493;28;19912;-41
2023/02/09 00:09:37;;;;;;;;;;;;;;;-1.45;51.84;102056.28;5073324;28;19932;-41
2023/02/09 00:14:46;;;;;;;;;;;;;;;-2.24;54.06;102097.16;5073704;28;20332;-41
2023/02/09 00:17:11;;;;;;;;;;;;;;;-2.36;55.36;102090.66;5073502;28;19912;-41
2023/02/09 00:19:37;;;;;;;;;;;;;;;-2.17;55.83;102088.13;5073256;28;20003;-41
2023/02/09 00:22:02;;;;;;;;;;;;;;;-1.49;53.54;102090.47;5073242;28;19959;-41
2023/02/09 00:24:27;;;;;;;;;;;;;;;-1.86;52.63;102086.84;5073720;28;20006;-41
2023/02/09 00:26:52;;;;;;;;;;;;;;;-2.15;55.71;102099.38;5073961;28;19912;-41
2023/02/09 00:29:24;;;;;;;;;;;;;;;-2.44;56.05;102101.38;5073465;28;19989;-41
2023/02/09 00:31:50;;;;;;;;;;;;;;;-1.52;54.05;102093.19;5073630;28;20031;-40
2023/02/09 00:34:15;;;;;;;;;;;;;;;-1.71;53.59;102091.41;5072881;28;19912;-41
2023/02/09 00:36:40;;;;;;;;;;;;;;;-2.33;53.76;102084.47;5073318;28;19935;-41
2023/02/09 00:39:06;;;;;;;;;;;;;;;-2.53;55.49;102087.88;5073425;28;20372;-41
2023/02/09 00:44:15;;;;;;;;;;;;;;;-1.74;53.18;102080.25;5073715;28;19923;-41
2023/02/09 00:46:40;;;;;;;;;;;;;;;-1.96;54.29;102078.56;5073417;28;19912;-41
2023/02/09 00:49:06;;;;;;;;;;;;;;;-2.41;55.95;102083.03;5073348;28;19974;-40
2023/02/09 00:51:31;;;;;;;;;;;;;;;-2.45;56.45;102072.78;5073415;28;20067;-41
2023/02/09 00:53:56;;;;;;;;;;;;;;;-1.90;54.92;102075.69;5073322;28;19912;-41
2023/02/09 00:56:22;;;;;;;;;;;;;;;-1.74;54.27;102075.03;5073331;28;19977;-41
2023/02/09 00:58:47;;;;;;;;;;;;;;;-2.19;54.46;102076.91;5073194;28;19955;-41
2023/02/09 01:01:12;;;;;;;;;;;;;;;-2.56;58.08;102076.66;5073251;28;20256;-41
2023/02/09 01:03:41;;;;;;;;;;;;;;;-2.28;57.33;102079.94;5073098;28;19947;-41
2023/02/09 01:06:06;;;;;;;;;;;;;;;-1.80;56.48;102070.91;5073357;28;19912;-41
2023/02/09 01:08:32;;;;;;;;;;;;;;;-1.88;54.73;102073.88;5073273;28;20011;-41
2023/02/09 01:10:57;;;;;;;;;;;;;;;-2.04;55.29;102072.81;5073116;28;19921;-41
2023/02/09 01:13:22;;;;;;;;;;;;;;;-2.26;55.99;102068.50;5073153;28;19977;-41
2023/02/09 01:15:48;;;;;;;;;;;;;;;-1.62;54.28;102069.25;5072985;28;20368;-41
2023/02/09 01:18:13;;;;;;;;;;;;;;;-1.80;54.62;102066.53;5073045;28;19917;-42
2023/02/09 01:20:41;;;;;;;;;;;;;;;-2.07;54.74;102055.53;5072749;28;20291;-42
2023/02/09 01:23:07;;;;;;;;;;;;;;;-2.21;55.18;102066.56;5073058;28;19915;-42
2023/02/09 01:25:33;;;;;;;;;;;;;;;-1.99;54.36;102066.47;5072641;28;19916;-40
2023/02/09 01:27:58;;;;;;;;;;;;;;;-1.63;54.55;102068.41;5072879;28;20253;-42
2023/02/09 01:30:23;;;;;;;;;;;;;;;-2.22;54.79;102071.84;5072240;28;20007;-41
2023/02/09 01:32:49;;;;;;;;;;;;;;;-2.42;55.92;102070.91;5072410;28;19961;-41
2023/02/09 01:35:14;;;;;;;;;;;;;;;-2.37;56.43;102066.31;5072611;28;19920;-41
2023/02/09 01:37:39;;;;;;;;;;;;;;;-2.47;56.07;102064.19;5072303;28;20286;-41
2023/02/09 01:40:05;;;;;;;;;;;;;;;-1.50;53.57;102057.44;5072282;28;19919;-41
2023/02/09 01:42:31;;;;;;;;;;;;;;;-1.88;54.48;102062.59;5072259;28;19959;-41
2023/02/09 01:45:05;;;;;;;;;;;;;;;-1.97;54.48;102061.22;5071824;28;20590;-41
2023/02/09 01:47:31;;;;;;;;;;;;;;;-2.48;54.68;102055.47;5072014;28;20300;-41
2023/02/09 01:49:57;;;;;;;;;;;;;;;-2.08;54.12;102053.81;5072015;28;20558;-41
2023/02/09 01:52:25;;;;;;;;;;;;;;;-1.97;54.36;102050.75;5072246;28;19912;-42
2023/02/09 01:54:53;;;;;;;;;;;;;;;-1.99;53.78;102055.22;5072015;28;20398;-41
2023/02/09 01:57:24;;;;;;;;;;;;;;;-2.52;55.88;102047.88;5072116;28;19916;-41
2023/02/09 01:59:52;;;;;;;;;;;;;;;-2.32;55.29;102058.34;5071869;28;20026;-41
2023/02/09 02:02:18;;;;;;;;;;;;;;;-1.99;55.28;102056.03;5071774;28;19927;-41
2023/02/09 02:04:44;;;;;;;;;;;;;;;-2.03;54.43;102051.03;5071867;28;19991;-41
2023/02/09 02:07:13;;;;;;;;;;;;;;;-2.18;55.67;102045.53;5071932;28;20359;-41
2023/02/09 02:09:38;;;;;;;;;;;;;;;-2.25;57.35;102046.72;5071694;28;19920;-35
2023/02/09 02:12:04;;;;;;;;;;;;;;;-2.18;56.86;102050.75;5071676;28;19937;-35
2023/02/09 02:14:31;;;;;;;;;;;;;;;-1.80;55.43;102044.81;5071777;28;19970;-35
2023/02/09 02:17:10;;;;;;;;;;;;;;;-2.56;56.89;102049.75;5071568;28;19919;-35
2023/02/09 02:19:45;;;;;;;;;;;;;;;-2.98;57.94;102056.59;5071595;28;19991;-35
2023/02/09 02:22:24;;;;;;;;;;;;;;;-3.07;59.23;102058.72;5070887;28;19920;-35
2023/02/09 02:25:08;;;;;;;;;;;;;;;-2.02;56.57;102050.97;5071731;28;19970;-34
2023/02/09 02:27:42;;;;;;;;;;;;;;;-2.04;55.35;102047.56;5071409;28;19919;-34
2023/02/09 02:30:18;;;;;;;;;;;;;;;-2.64;55.06;102046.59;5071652;28;19945;-34
2023/02/09 02:32:49;;;;;;;;;;;;;;;-2.86;56.33;102044.84;5071816;28;20097;-34
2023/02/09 02:35:20;;;;;;;;;;;;;;;-2.99;57.51;102049.69;5071603;28;19916;-35
2023/02/09 02:37:49;;;;;;;;;;;;;;;-2.99;57.52;102039.28;5071420;28;19913;-35
2023/02/09 02:40:27;;;;;;;;;;;;;;;-2.48;55.36;102037.22;5071379;28;19980;-35
2023/02/09 02:42:52;;;;;;;;;;;;;;;-2.48;56.85;102036.41;5071438;28;19916;-35
2023/02/09 02:45:23;;;;;;;;;;;;;;;-2.99;57.07;102034.06;5071583;28;20113;-35
2023/02/09 02:47:53;;;;;;;;;;;;;;;-3.21;57.78;102034.03;5071398;28;19920;-35
2023/02/09 02:50:22;;;;;;;;;;;;;;;-3.18;58.08;102020.91;5071199;28;19946;-35
2023/02/09 02:52:50;;;;;;;;;;;;;;;-3.09;58.22;102030.09;5071060;28;19944;-35
2023/02/09 02:55:17;;;;;;;;;;;;;;;-2.67;55.79;102031.06;5071336;28;19919;-35
2023/02/09 02:57:44;;;;;;;;;;;;;;;-2.81;57.51;102029.03;5070680;28;20439;-35
2023/02/09 03:00:15;;;;;;;;;;;;;;;-3.15;56.98;102030.34;5070882;28;19912;-35
2023/02/09 03:02:43;;;;;;;;;;;;;;;-3.27;58.65;102018.66;5071057;28;19913;-35
2023/02/09 03:05:09;;;;;;;;;;;;;;;-3.30;58.77;102013.53;5070960;28;19919;-35
2023/02/09 03:07:34;;;;;;;;;;;;;;;-3.27;59.59;102018.66;5071033;28;19912;-35
2023/02/09 03:09:59;;;;;;;;;;;;;;;-3.33;59.17;102016.28;5071113;28;19924;-35
2023/02/09 03:12:43;;;;;;;;;;;;;;;-3.21;58.20;102014.97;5071080;28;20583;-35
2023/02/09 03:15:24;;;;;;;;;;;;;;;-2.97;58.38;102018.34;5071008;28;19916;-35
2023/02/09 03:18:08;;;;;;;;;;;;;;;-3.37;58.02;102015.56;5070962;28;19912;-35
2023/02/09 03:20:53;;;;;;;;;;;;;;;-3.21;59.51;102013.19;5070675;28;19913;-36
2023/02/09 03:23:29;;;;;;;;;;;;;;;-2.97;58.83;102013.13;5070640;28;19912;-36
2023/02/09 03:25:55;;;;;;;;;;;;;;;-3.04;58.40;102011.72;5071231;28;19912;-36
2023/02/09 03:28:27;;;;;;;;;;;;;;;-3.06;58.77;102021.34;5070865;28;19913;-35
2023/02/09 03:30:52;;;;;;;;;;;;;;;-3.27;59.53;102008.22;5070632;28;20455;-35
2023/02/09 03:33:19;;;;;;;;;;;;;;;-3.54;59.43;102008.38;5070755;28;20007;-36
2023/02/09 03:35:47;;;;;;;;;;;;;;;-3.53;60.82;102004.00;5071339;28;19982;-35
2023/02/09 03:38:13;;;;;;;;;;;;;;;-3.65;59.18;101994.06;5070477;28;20411;-35
2023/02/09 03:40:38;;;;;;;;;;;;;;;-3.43;60.29;101999.28;5070703;28;20062;-35
2023/02/09 03:43:03;;;;;;;;;;;;;;;-2.81;57.02;101997.75;5070890;28;19970;-36
2023/02/09 03:45:28;;;;;;;;;;;;;;;-3.01;59.03;102001.16;5070974;28;19916;-36
2023/02/09 03:47:54;;;;;;;;;;;;;;;-3.23;59.46;102002.00;5070809;28;19912;-36
2023/02/09 03:50:19;;;;;;;;;;;;;;;-3.28;57.93;102001.31;5070365;28;20391;-35
2023/02/09 03:52:44;;;;;;;;;;;;;;;-3.04;58.40;101990.88;5070529;28;19916;-35
2023/02/09 03:55:09;;;;;;;;;;;;;;;-3.01;59.62;101999.41;5070931;28;20360;-35
2023/02/09 03:57:35;;;;;;;;;;;;;;;-3.09;57.52;101991.03;5071016;28;19969;-35
2023/02/09 04:00:00;;;;;;;;;;;;;;;-3.09;57.97;101987.59;5070487;28;20341;-35
2023/02/09 04:02:26;;;;;;;;;;;;;;;-3.43;59.57;101981.06;5070653;28;19912;-35
2023/02/09 04:04:52;;;;;;;;;;;;;;;-3.27;59.81;101991.78;5070630;28;19912;-35
2023/02/09 04:07:17;;;;;;;;;;;;;;;-3.41;60.71;101989.66;5070836;28;20321;-35
2023/02/09 04:09:43;;;;;;;;;;;;;;;-3.67;60.58;101990.66;5072579;28;19917;-35
2023/02/09 04:12:08;;;;;;;;;;;;;;;-3.49;60.72;101994.31;5074257;28;19944;-35
2023/02/09 04:14:33;;;;;;;;;;;;;;;-3.41;59.46;101985.34;5092923;28;20387;-34
2023/02/09 04:16:58;;;;;;;;;;;;;;;-3.60;58.59;101990.38;5094322;28;19919;-34
2023/02/09 04:19:24;;;;;;;;;;;;;;;-3.65;59.49;101986.25;5094476;28;19913;-35
2023/02/09 04:21:49;;;;;;;;;;;;;;;-3.70;59.82;101991.59;5093933;28;20510;-35
2023/02/09 04:24:14;;;;;;;;;;;;;;;-3.82;58.82;101987.72;5094065;28;20362;-35
2023/02/09 04:26:39;;;;;;;;;;;;;;;-4.02;60.08;101995.38;5094174;28;19931;-35
2023/02/09 04:29:05;;;;;;;;;;;;;;;-3.98;59.58;101984.81;5094302;28;19912;-35
2023/02/09 04:31:30;;;;;;;;;;;;;;;-4.36;60.65;101987.00;5093934;28;20014;-35
2023/02/09 04:33:55;;;;;;;;;;;;;;;-4.21;60.60;101985.59;5093924;28;19989;-34
2023/02/09 04:36:22;;;;;;;;;;;;;;;-4.37;60.83;101990.50;5093835;28;19918;-35
2023/02/09 04:38:47;;;;;;;;;;;;;;;-4.32;60.47;101993.81;5093874;28;20027;-35
2023/02/09 04:41:13;;;;;;;;;;;;;;;-4.41;60.85;101996.72;5093875;28;20004;-35
2023/02/09 04:43:38;;;;;;;;;;;;;;;-4.34;59.85;101995.59;5093754;28;19916;-35
2023/02/09 04:46:03;;;;;;;;;;;;;;;-4.30;59.49;101990.28;5093777;28;19935;-35
2023/02/09 04:48:29;;;;;;;;;;;;;;;-4.34;59.53;101994.72;5092834;28;19918;-35
2023/02/09 04:50:55;;;;;;;;;;;;;;;-4.34;59.28;101992.13;5093520;28;20277;-35
2023/02/09 04:53:20;;;;;;;;;;;;;;;-4.46;59.94;101989.97;5093735;28;19962;-35
2023/02/09 04:55:46;;;;;;;;;;;;;;;-4.61;60.87;101992.16;5093582;28;20002;-35
2023/02/09 05:00:56;;;;;;;;;;;;;;;-4.21;58.99;101993.41;5093348;28;19969;-35
2023/02/09 05:03:22;;;;;;;;;;;;;;;-4.23;59.33;101999.56;5093287;28;19916;-35
2023/02/09 05:05:48;;;;;;;;;;;;;;;-3.42;60.31;102003.63;5093159;28;20007;-35
2023/02/09 05:08:13;;;;;;;;;;;;;;;-3.95;58.61;101997.69;5093156;28;19912;-35
2023/02/09 05:10:38;;;;;;;;;;;;;;;-4.29;59.86;102008.44;5093184;28;20386;-35
2023/02/09 05:13:04;;;;;;;;;;;;;;;-4.37;59.73;102007.84;5093099;28;19912;-35
2023/02/09 05:15:29;;;;;;;;;;;;;;;-4.09;59.24;102018.16;5093017;28;20431;-36
2023/02/09 05:17:54;;;;;;;;;;;;;;;-4.01;59.11;102007.50;5092427;28;19913;-36
2023/02/09 05:20:20;;;;;;;;;;;;;;;-2.30;77.33;102013.91;5092657;28;19919;-36
2023/02/09 05:22:45;;;;;;;;;;;;;;;-1.63;69.84;102018.81;5092542;28;20134;-35
2023/02/09 05:25:11;;;;;;;;;;;;;;;-1.14;67.74;102018.31;5092875;28;20356;-35
2023/02/09 05:27:36;;;;;;;;;;;;;;;-0.71;62.72;102021.47;5092529;28;20082;-36
2023/02/09 05:30:01;;;;;;;;;;;;;;;0.37;63.65;102026.50;5092570;28;19943;-37
2023/02/09 05:32:26;;;;;;;;;;;;;;;-0.25;49.42;102016.59;5092633;28;19963;-34
2023/02/09 05:34:52;;;;;;;;;;;;;;;-1.08;50.43;102019.81;5092445;28;20012;-36
2023/02/09 05:37:17;;;;;;;;;;;;;;;-1.70;52.79;102014.75;5092045;28;19912;-36
2023/02/09 05:39:42;;;;;;;;;;;;;;;-2.48;52.56;102026.81;5091863;28;19913;-36
2023/02/09 05:42:17;;;;;;;;;;;;;;;-3.02;55.36;102020.31;5092722;28;19951;-36
2023/02/09 05:44:42;;;;;;;;;;;;;;;-2.79;55.51;102020.22;5092137;28;19995;-36
2023/02/09 05:47:07;;;;;;;;;;;;;;;-3.10;55.54;102028.44;5091885;28;20034;-36
2023/02/09 05:49:32;;;;;;;;;;;;;;;-3.01;55.95;102029.81;5091761;28;19912;-36
2023/02/09 05:51:58;;;;;;;;;;;;;;;-3.66;57.38;102020.97;5091117;28;20362;-36
2023/02/09 05:54:23;;;;;;;;;;;;;;;-3.20;56.09;102022.72;5091143;28;20384;-36
2023/02/09 05:56:48;;;;;;;;;;;;;;;-3.06;55.76;102024.78;5089397;28;19919;-36
2023/02/09 05:59:14;;;;;;;;;;;;;;;-3.32;57.07;102033.59;5089484;28;19969;-35
2023/02/09 06:01:39;;;;;;;;;;;;;;;-3.86;57.68;102032.13;5098623;28;19919;-35
2023/02/09 06:04:05;;;;;;;;;;;;;;;-3.44;58.31;102034.06;5096026;28;19994;-35
2023/02/09 06:06:32;;;;;;;;;;;;;;;-3.08;56.13;102038.78;5083165;28;19962;-40
2023/02/09 06:08:57;;;;;;;;;;;;;;;-3.74;57.95;102036.88;5087120;28;19916;-41
2023/02/09 06:11:23;;;;;;;;;;;;;;;-3.32;56.87;102031.00;5089640;28;20394;-40
2023/02/09 06:13:48;;;;;;;;;;;;;;;-2.97;56.73;102034.84;5090319;28;19916;-41
2023/02/09 06:16:13;;;;;;;;;;;;;;;-3.05;56.71;102036.06;5104941;28;20002;-41
2023/02/09 06:18:39;;;;;;;;;;;;;;;-2.78;54.77;102034.97;5093677;28;20061;-40
2023/02/09 06:21:04;;;;;;;;;;;;;;;-2.41;54.44;102028.25;5076640;28;19920;-41
2023/02/09 06:23:30;;;;;;;;;;;;;;;-2.03;53.24;102023.16;5079704;28;19925;-41
2023/02/09 06:25:56;;;;;;;;;;;;;;;-1.45;51.61;102017.09;5080233;28;19916;-41
2023/02/09 06:28:22;;;;;;;;;;;;;;;-1.25;50.09;102008.38;5089005;28;19990;-41
2023/02/09 06:30:51;;;;;;;;;;;;;;;-1.05;49.94;102025.75;5086329;28;19963;-41
2023/02/09 06:33:17;;;;;;;;;;;;;;;-0.96;49.63;102019.22;5108653;28;20025;-41
2023/02/09 06:35:42;;;;;;;;;;;;;;;-0.96;49.60;102016.59;5110376;28;19911;-41
2023/02/09 06:38:08;;;;;;;;;;;;;;;-0.78;48.99;102020.09;5110301;28;19973;-41
2023/02/09 06:40:33;;;;;;;;;;;;;;;-0.42;48.31;102019.19;5106558;28;20418;-42
2023/02/09 06:42:58;;;;;;;;;;;;;;;0.21;47.20;102025.59;5085126;28;19961;-42
2023/02/09 06:45:24;;;;;;;;;;;;;;;0.38;46.24;102018.56;5086074;28;19959;-41
2023/02/09 06:47:49;;;;;;;;;;;;;;;0.37;46.83;102027.34;5071528;28;19917;-42
2023/02/09 06:50:15;;;;;;;;;;;;;;;0.29;46.39;102024.28;5077152;28;20312;-43
2023/02/09 06:52:40;;;;;;;;;;;;;;;0.28;45.97;102030.44;5080537;28;20426;-41
2023/02/09 06:55:06;;;;;;;;;;;;;;;0.62;45.66;102033.03;5079907;28;19923;-42
2023/02/09 06:57:31;;;;;;;;;;;;;;;0.80;45.47;102034.69;5093318;28;19919;-42
2023/02/09 06:59:56;;;;;;;;;;;;;;;1.18;44.02;102031.66;5077558;28;20013;-42
2023/02/09 07:02:21;;;;;;;;;;;;;;;1.45;43.63;102025.81;5071850;28;20003;-42
2023/02/09 07:04:47;;;;;;;;;;;;;;;2.03;42.99;102027.63;5081187;28;19916;-41
2023/02/09 07:07:12;;;;;;;;;;;;;;;1.88;43.47;102026.75;5072998;28;20368;-40
2023/02/09 07:09:38;;;;;;;;;;;;;;;2.14;42.62;102025.19;5085399;28;19920;-40
2023/02/09 07:12:03;;;;;;;;;;;;;;;2.26;41.59;102023.59;5078030;28;19927;-40
2023/02/09 07:14:28;;;;;;;;;;;;;;;2.43;41.10;102019.94;5085476;28;19924;-42
2023/02/09 07:16:54;;;;;;;;;;;;;;;2.07;41.97;102020.41;5085397;28;20113;-41
2023/02/09 07:19:19;;;;;;;;;;;;;;;2.38;41.15;102016.75;5081850;28;20360;-41
2023/02/09 07:21:44;;;;;;;;;;;;;;;2.79;40.71;102029.09;5074152;28;19932;-41
2023/02/09 07:24:09;;;;;;;;;;;;;;;2.93;40.15;102033.47;5072222;28;19926;-41
2023/02/09 07:26:35;;;;;;;;;;;;;;;3.25;39.52;102033.19;5075516;28;19959;-41
2023/02/09 07:29:00;;;;;;;;;;;;;;;3.08;39.76;102034.28;5071023;28;19920;-43
2023/02/09 07:31:25;;;;;;;;;;;;;;;3.03;40.05;102034.59;5075880;28;20237;-41
2023/02/09 07:33:51;;;;;;;;;;;;;;;2.79;39.51;102036.13;5077118;28;20101;-42
2023/02/09 07:36:17;;;;;;;;;;;;;;;2.77;39.92;102033.59;5090521;28;20034;-42
2023/02/09 07:38:42;;;;;;;;;;;;;;;3.28;39.70;102033.00;5081519;28;19916;-41
2023/02/09 07:41:12;;;;;;;;;;;;;;;3.73;38.83;102041.41;5090260;28;19912;-41
2023/02/09 07:43:37;;;;;;;;;;;;;;;3.59;39.15;102030.97;5090630;28;20407;-42
2023/02/09 07:46:04;;;;;;;;;;;;;;;3.52;38.96;102034.03;5094413;28;19918;-42
2023/02/09 07:48:30;;;;;;;;;;;;;;;3.74;39.18;102042.28;5094122;28;20001;-42
2023/02/09 07:50:55;;;;;;;;;;;;;;;3.91;38.34;102026.16;5093828;28;19923;-42
2023/02/09 07:53:21;;;;;;;;;;;;;;;4.44;37.75;102026.06;5094164;28;19912;-42
2023/02/09 07:55:46;;;;;;;;;;;;;;;4.81;37.08;102029.53;5094135;28;19947;-42
2023/02/09 07:58:11;;;;;;;;;;;;;;;4.72;36.96;102032.00;5093759;28;20035;-42
2023/02/09 08:00:37;;;;;;;;;;;;;;;5.03;36.23;102033.28;5094041;28;19912;-42
2023/02/09 08:03:03;;;;;;;;;;;;;;;5.09;36.45;102024.91;5093882;28;19912;-42
2023/02/09 08:05:28;;;;;;;;;;;;;;;5.37;35.74;102017.59;5094153;28;20362;-44
2023/02/09 08:07:54;;;;;;;;;;;;;;;5.26;35.55;102021.06;5090769;28;19959;-42
2023/02/09 08:10:20;;;;;;;;;;;;;;;5.14;35.89;102024.56;5087582;28;19924;-43
2023/02/09 08:13:03;;;;;;;;;;;;;;;5.16;36.48;102026.16;5083763;28;19916;-40
2023/02/09 08:15:33;;;;;;;;;;;;;;;5.55;35.83;102012.75;5085023;28;19923;-42
2023/02/09 08:18:01;;;;;;;;;;;;;;;5.39;35.25;102019.19;5088146;28;19916;-41
2023/02/09 08:20:28;;;;;;;;;;;;;;;5.04;35.85;102014.69;5086371;28;20368;-41
2023/02/09 08:22:58;;;;;;;;;;;;;;;5.23;35.61;102014.19;5082427;28;19920;-42
2023/02/09 08:25:24;;;;;;;;;;;;;;;5.32;35.59;102010.03;5081169;28;19960;-42
2023/02/09 08:27:50;;;;;;;;;;;;;;;5.39;35.64;102007.78;5083073;28;20299;-42
2023/02/09 08:30:16;;;;;;;;;;;;;;;5.47;35.00;102005.41;5081700;28;20324;-41
2023/02/09 08:32:41;;;;;;;;;;;;;;;5.53;34.81;102004.09;5084461;28;19919;-41
2023/02/09 08:35:07;;;;;;;;;;;;;;;5.59;34.36;102007.13;5090075;28;19912;-41
2023/02/09 08:37:32;;;;;;;;;;;;;;;5.75;34.43;102001.53;5090887;28;20352;-41
2023/02/09 08:39:57;;;;;;;;;;;;;;;5.83;34.43;102004.41;5091517;28;19922;-44
2023/02/09 08:42:22;;;;;;;;;;;;;;;6.00;34.12;101997.03;5109399;28;19912;-41
2023/02/09 08:44:48;;;;;;;;;;;;;;;5.63;35.05;101989.25;5101532;28;20027;-40
2023/02/09 08:47:13;;;;;;;;;;;;;;;5.82;34.20;101986.88;5101557;28;19912;-41
2023/02/09 08:49:38;;;;;;;;;;;;;;;6.05;33.50;101993.09;5108608;28;19920;-41
2023/02/09 08:52:04;;;;;;;;;;;;;;;5.80;34.32;101990.59;5096186;28;20304;-43
2023/02/09 08:54:29;;;;;;;;;;;;;;;6.32;32.89;101986.59;5107313;28;20055;-41
2023/02/09 08:56:54;;;;;;;;;;;;;;;5.89;34.25;101989.91;5102196;28;20391;-41
2023/02/09 08:59:20;;;;;;;;;;;;;;;5.77;34.30;101986.41;5100638;28;19912;-41
2023/02/09 09:01:46;;;;;;;;;;;;;;;5.71;33.26;101986.00;5109257;28;19969;-41
2023/02/09 09:04:11;;;;;;;;;;;;;;;6.12;33.53;101984.66;5096244;28;19916;-40
2023/02/09 09:06:36;;;;;;;;;;;;;;;6.05;33.01;101979.00;5113004;28;19920;-40
2023/02/09 09:09:02;;;;;;;;;;;;;;;5.90;32.32;101959.84;5112942;28;19912;-41
2023/02/09 09:11:28;;;;;;;;;;;;;;;6.03;32.81;101981.75;5098565;28;19916;-40
2023/02/09 09:13:54;;;;;;;;;;;;;;;6.06;33.01;101980.69;5109248;28;19911;-41
2023/02/09 09:16:21;;;;;;;;;;;;;;;5.86;32.10;101979.56;5097100;28;19919;-41
2023/02/09 09:18:46;;;;;;;;;;;;;;;5.77;32.29;101973.19;5104898;28;19916;-41
2023/02/09 09:21:12;;;;;;;;;;;;;;;5.31;33.56;101981.09;5092713;28;19969;-40
2023/02/09 09:23:38;;;;;;;;;;;;;;;5.41;32.71;101975.03;5108474;28;20033;-41
2023/02/09 09:26:03;;;;;;;;;;;;;;;5.16;32.94;101968.09;5096192;28;19912;-46
2023/02/09 09:28:29;;;;;;;;;;;;;;;4.75;34.31;101979.03;5112206;28;19916;-46
2023/02/09 09:30:55;;;;;;;;;;;;;;;5.72;33.21;101961.28;5083413;28;19923;-46
2023/02/09 09:33:20;;;;;;;;;;;;;;;5.92;32.49;101954.44;5082045;28;19944;-47
2023/02/09 09:35:45;;;;;;;;;;;;;;;5.42;33.43;101958.19;5083129;28;19913;-46
2023/02/09 09:38:11;;;;;;;;;;;;;;;5.28;32.77;101955.78;5075611;28;19920;-46
2023/02/09 09:40:39;;;;;;;;;;;;;;;5.34;33.31;101954.47;5073032;28;19912;-46
2023/02/09 09:43:07;;;;;;;;;;;;;;;5.76;32.96;101950.34;5082381;28;19919;-46
2023/02/09 09:45:36;;;;;;;;;;;;;;;6.05;32.03;101948.16;5071517;28;19978;-47
2023/02/09 09:48:02;;;;;;;;;;;;;;;6.15;31.80;101950.03;5071604;28;19977;-47
2023/02/09 09:50:30;;;;;;;;;;;;;;;6.51;31.45;101938.38;5070512;28;19920;-47
2023/02/09 09:53:01;;;;;;;;;;;;;;;6.25;31.64;101938.63;5070706;28;19920;-48
2023/02/09 09:55:28;;;;;;;;;;;;;;;6.15;31.99;101936.81;5071204;28;19912;-48
2023/02/09 09:57:55;;;;;;;;;;;;;;;6.17;32.47;101926.97;5070214;28;19912;-47
2023/02/09 10:00:22;;;;;;;;;;;;;;;6.24;31.83;101928.16;5071680;28;19912;-47
2023/02/09 10:02:47;;;;;;;;;;;;;;;5.98;31.91;101920.50;5071953;28;19912;-47
2023/02/09 10:05:26;;;;;;;;;;;;;;;6.13;32.36;101920.25;5070992;28;19913;-46
2023/02/09 10:07:52;;;;;;;;;;;;;;;5.88;31.50;101912.44;5068739;28;19912;-47
2023/02/09 10:10:24;;;;;;;;;;;;;;;6.02;31.23;101908.72;5069690;28;19966;-46
2023/02/09 10:12:50;;;;;;;;;;;;;;;5.02;31.34;101911.03;5069751;28;19912;-46
2023/02/09 10:15:32;;;;;;;;;;;;;;;5.02;32.21;101908.41;5070288;28;19945;-46
2023/02/09 10:17:58;;;;;;;;;;;;;;;5.22;31.62;101904.28;5070431;28;19912;-47
2023/02/09 10:20:41;;;;;;;;;;;;;;;5.24;32.47;101904.16;5070038;28;20001;-41
2023/02/09 10:23:16;;;;;;;;;;;;;;;5.37;32.13;101899.63;5071506;28;20305;-42
2023/02/09 10:25:50;;;;;;;;;;;;;;;5.97;31.11;101894.19;5070991;28;20339;-42
2023/02/09 10:28:22;;;;;;;;;;;;;;;4.90;32.34;101896.13;5070873;28;19920;-42
2023/02/09 10:30:50;;;;;;;;;;;;;;;4.42;33.10;101891.69;5079708;28;19938;-41
2023/02/09 10:33:15;;;;;;;;;;;;;;;4.40;33.14;101887.47;5090965;28;19916;-41
2023/02/09 10:35:48;;;;;;;;;;;;;;;4.75;32.97;101889.34;5091339;28;19918;-41
2023/02/09 10:38:17;;;;;;;;;;;;;;;5.54;31.28;101885.16;5091150;28;19966;-41
2023/02/09 10:40:46;;;;;;;;;;;;;;;6.14;30.66;101887.56;5091491;28;20023;-43
2023/02/09 10:43:29;;;;;;;;;;;;;;;5.98;30.10;101877.38;5091121;28;19919;-41
2023/02/09 10:46:10;;;;;;;;;;;;;;;5.84;30.61;101875.78;5091419;28;20332;-41
2023/02/09 10:48:40;;;;;;;;;;;;;;;6.20;30.48;101877.31;5091314;28;19918;-42
2023/02/09 10:51:06;;;;;;;;;;;;;;;6.14;30.27;101875.19;5090834;28;19916;-43
2023/02/09 10:53:36;;;;;;;;;;;;;;;5.90;29.54;101867.34;5091050;28;20314;-42
2023/02/09 10:56:06;;;;;;;;;;;;;;;5.97;29.72;101870.41;5091219;28;20370;-42
2023/02/09 10:58:32;;;;;;;;;;;;;;;5.43;30.96;101867.47;5091531;28;20372;-43
2023/02/09 11:01:10;;;;;;;;;;;;;;;5.54;30.82;101865.78;5091494;28;20002;-42
2023/02/09 11:03:36;;;;;;;;;;;;;;;5.94;29.88;101860.03;5090857;28;19940;-43
2023/02/09 11:06:27;;;;;;;;;;;;;;;6.25;29.94;101863.75;5090727;28;20328;-40
2023/02/09 11:08:56;;;;;;;;;;;;;;;6.89;29.04;101856.78;5090026;28;19912;-42
2023/02/09 11:11:32;;;;;;;;;;;;;;;6.53;28.59;101862.38;5090576;28;19916;-41
2023/02/09 11:13:57;;;;;;;;;;;;;;;5.81;29.52;101861.00;5090120;28;19920;-42
2023/02/09 11:16:43;;;;;;;;;;;;;;;5.24;30.32;101857.47;5090563;28;19918;-43
2023/02/09 11:19:27;;;;;;;;;;;;;;;4.95;30.69;101857.06;5088798;28;19912;-42
2023/02/09 11:22:01;;;;;;;;;;;;;;;4.86;30.78;101844.53;5089793;28;19927;-41
2023/02/09 11:24:29;;;;;;;;;;;;;;;5.17;30.22;101847.50;5090013;28;19912;-41
2023/02/09 11:27:03;;;;;;;;;;;;;;;5.44;30.60;101842.72;5090068;28;19919;-42
2023/02/09 11:29:36;;;;;;;;;;;;;;;5.88;29.59;101830.50;5090166;28;20478;-42
2023/02/09 11:32:11;;;;;;;;;;;;;;;5.79;29.67;101810.09;5089840;28;19922;-42
2023/02/09 11:34:52;;;;;;;;;;;;;;;5.69;29.03;101824.97;5090314;28;19912;-41
2023/02/09 11:37:29;;;;;;;;;;;;;;;5.55;29.50;101830.50;5090359;28;19916;-41
2023/02/09 11:40:00;;;;;;;;;;;;;;;5.85;28.27;101825.44;5090497;28;20452;-41
2023/02/09 11:42:43;;;;;;;;;;;;;;;5.64;29.61;101825.34;5090558;28;19923;-41
2023/02/09 11:45:26;;;;;;;;;;;;;;;5.91;29.59;101818.00;5090379;28;19928;-41
2023/02/09 11:47:57;;;;;;;;;;;;;;;5.87;29.76;101825.34;5090684;28;19916;-42
2023/02/09 11:50:45;;;;;;;;;;;;;;;5.26;29.45;101820.41;5090401;28;19923;-42
2023/02/09 11:53:25;;;;;;;;;;;;;;;5.59;30.02;101814.28;5090151;28;20268;-42
2023/02/09 11:55:55;;;;;;;;;;;;;;;5.61;29.57;101820.28;5090371;28;20166;-42
2023/02/09 11:58:43;;;;;;;;;;;;;;;5.42;30.58;101814.78;5089791;28;19912;-42
2023/02/09 12:01:22;;;;;;;;;;;;;;;5.83;29.31;101813.34;5089488;28;19919;-41
2023/02/09 12:03:54;;;;;;;;;;;;;;;5.37;29.43;101801.94;5089837;28;20412;-41
2023/02/09 12:06:21;;;;;;;;;;;;;;;5.20;29.51;101805.88;5090133;28;19943;-41
2023/02/09 12:09:07;;;;;;;;;;;;;;;4.90;30.35;101807.25;5090560;28;19920;-42
2023/02/09 12:11:51;;;;;;;;;;;;;;;5.38;29.41;101800.97;5089834;28;19994;-42
2023/02/09 12:14:35;;;;;;;;;;;;;;;5.76;29.30;101797.09;5089829;28;19912;-42
2023/02/09 12:17:12;;;;;;;;;;;;;;;5.73;29.78;101802.66;5089736;28;20337;-42
2023/02/09 12:19:42;;;;;;;;;;;;;;;6.21;28.68;101804.16;5090424;28;19943;-41
2023/02/09 12:22:25;;;;;;;;;;;;;;;5.27;29.57;101796.53;5090221;28;19921;-42
2023/02/09 12:25:09;;;;;;;;;;;;;;;5.26;29.28;101794.00;5090263;28;19919;-42
2023/02/09 12:27:37;;;;;;;;;;;;;;;5.50;29.44;101793.88;5090498;28;19919;-41
2023/02/09 12:30:22;;;;;;;;;;;;;;;5.62;29.13;101787.66;5091170;28;19920;-42
2023/02/09 12:32:48;;;;;;;;;;;;;;;5.76;28.85;101791.81;5092788;28;19931;-42
2023/02/09 12:35:42;;;;;;;;;;;;;;;6.02;28.65;101788.94;5093560;28;19912;-42
2023/02/09 12:38:16;;;;;;;;;;;;;;;5.47;28.50;101780.94;5093072;28;20360;-42
2023/02/09 12:40:41;;;;;;;;;;;;;;;4.89;28.82;101779.19;5093634;28;19955;-42
2023/02/09 12:43:11;;;;;;;;;;;;;;;4.95;28.92;101774.38;5094052;28;19955;-43
2023/02/09 12:45:38;;;;;;;;;;;;;;;5.07;28.74;101771.66;5093630;28;19923;-44
2023/02/09 12:48:06;;;;;;;;;;;;;;;5.59;28.28;101774.66;5093873;28;19916;-41
2023/02/09 12:50:51;;;;;;;;;;;;;;;5.76;27.92;101773.34;5093661;28;19977;-43
2023/02/09 12:53:23;;;;;;;;;;;;;;;5.55;28.56;101757.38;5093596;28;19919;-41
2023/02/09 12:55:57;;;;;;;;;;;;;;;5.91;28.27;101773.09;5093386;28;19956;-42